sensor_id;sensor_type;location;lat;lon;timestamp;P1;durP1;ratioP1;P2;durP2;ratioP2
10311;SDS011;5201;48.776;9.128;2022-12-18T00:01:57;38.43;;;19.80;;
10311;SDS011;5201;48.776;9.128;2022-12-18T00:04:24;34.93;;;17.73;;
10311;SDS011;5201;48.776;9.128;2022-12-18T00:06:51;38.33;;;16.90;;
10311;SDS011;5201;48.776;9.128;2022-12-18T00:09:17;34.50;;;17.63;;
10311;SDS011;5201;48.776;9.128;2022-12-18T00:11:44;36.20;;;17.70;;
10311;SDS011;5201;48.776;9.128;2022-12-18T00:14:10;39.30;;;17.80;;
10311;SDS011;5201;48.776;9.128;2022-12-18T00:16:37;34.60;;;18.37;;
10311;SDS011;5201;48.776;9.128;2022-12-18T00:19:03;40.60;;;16.90;;
10311;SDS011;5201;48.776;9.128;2022-12-18T00:21:30;41.00;;;18.63;;
10311;SDS011;5201;48.776;9.128;2022-12-18T00:23:58;40.00;;;17.17;;
10311;SDS011;5201;48.776;9.128;2022-12-18T00:26:25;39.97;;;18.90;;
10311;SDS011;5201;48.776;9.128;2022-12-18T00:28:59;38.43;;;18.40;;
10311;SDS011;5201;48.776;9.128;2022-12-18T00:31:27;39.63;;;17.37;;
10311;SDS011;5201;48.776;9.128;2022-12-18T00:33:54;41.93;;;18.27;;
10311;SDS011;5201;48.776;9.128;2022-12-18T00:36:30;39.23;;;19.13;;
10311;SDS011;5201;48.776;9.128;2022-12-18T00:38:58;43.43;;;18.00;;
10311;SDS011;5201;48.776;9.128;2022-12-18T00:41:25;40.70;;;18.93;;
10311;SDS011;5201;48.776;9.128;2022-12-18T00:44:10;36.73;;;18.50;;
10311;SDS011;5201;48.776;9.128;2022-12-18T00:46:38;40.50;;;18.60;;
10311;SDS011;5201;48.776;9.128;2022-12-18T00:49:06;37.77;;;17.23;;
10311;SDS011;5201;48.776;9.128;2022-12-18T00:51:31;34.53;;;17.47;;
10311;SDS011;5201;48.776;9.128;2022-12-18T00:53:57;36.97;;;17.30;;
10311;SDS011;5201;48.776;9.128;2022-12-18T00:56:23;43.90;;;18.13;;
10311;SDS011;5201;48.776;9.128;2022-12-18T00:58:49;40.90;;;17.43;;
10311;SDS011;5201;48.776;9.128;2022-12-18T01:01:14;37.90;;;18.20;;
10311;SDS011;5201;48.776;9.128;2022-12-18T01:03:40;34.30;;;17.50;;
10311;SDS011;5201;48.776;9.128;2022-12-18T01:06:06;36.13;;;17.43;;
10311;SDS011;5201;48.776;9.128;2022-12-18T01:08:33;31.13;;;16.00;;
10311;SDS011;5201;48.776;9.128;2022-12-18T01:10:58;32.07;;;16.80;;
10311;SDS011;5201;48.776;9.128;2022-12-18T01:13:24;31.97;;;15.67;;
10311;SDS011;5201;48.776;9.128;2022-12-18T01:15:50;38.47;;;17.97;;
10311;SDS011;5201;48.776;9.128;2022-12-18T01:18:16;34.13;;;16.30;;
10311;SDS011;5201;48.776;9.128;2022-12-18T01:20:41;30.80;;;15.20;;
10311;SDS011;5201;48.776;9.128;2022-12-18T01:23:07;30.47;;;16.70;;
10311;SDS011;5201;48.776;9.128;2022-12-18T01:25:35;31.03;;;16.10;;
10311;SDS011;5201;48.776;9.128;2022-12-18T01:28:01;33.37;;;15.17;;
10311;SDS011;5201;48.776;9.128;2022-12-18T01:30:26;38.60;;;18.00;;
10311;SDS011;5201;48.776;9.128;2022-12-18T01:32:52;33.50;;;16.57;;
10311;SDS011;5201;48.776;9.128;2022-12-18T01:35:18;30.97;;;14.93;;
10311;SDS011;5201;48.776;9.128;2022-12-18T01:37:44;34.13;;;17.80;;
10311;SDS011;5201;48.776;9.128;2022-12-18T01:40:10;36.50;;;16.93;;
10311;SDS011;5201;48.776;9.128;2022-12-18T01:42:35;33.73;;;15.73;;
10311;SDS011;5201;48.776;9.128;2022-12-18T01:52:55;33.77;;;16.43;;
10311;SDS011;5201;48.776;9.128;2022-12-18T01:55:35;30.63;;;15.90;;
10311;SDS011;5201;48.776;9.128;2022-12-18T01:58:07;38.37;;;17.07;;
10311;SDS011;5201;48.776;9.128;2022-12-18T02:00:33;44.73;;;17.80;;
10311;SDS011;5201;48.776;9.128;2022-12-18T02:02:59;39.60;;;18.17;;
10311;SDS011;5201;48.776;9.128;2022-12-18T02:05:45;37.80;;;17.63;;
10311;SDS011;5201;48.776;9.128;2022-12-18T02:08:21;34.27;;;16.03;;
10311;SDS011;5201;48.776;9.128;2022-12-18T02:18:50;37.47;;;17.70;;
10311;SDS011;5201;48.776;9.128;2022-12-18T02:21:28;38.47;;;15.47;;
10311;SDS011;5201;48.776;9.128;2022-12-18T02:24:24;35.10;;;16.07;;
10311;SDS011;5201;48.776;9.128;2022-12-18T02:27:01;31.20;;;16.13;;
10311;SDS011;5201;48.776;9.128;2022-12-18T02:29:35;34.33;;;14.50;;
10311;SDS011;5201;48.776;9.128;2022-12-18T02:32:13;32.53;;;15.63;;
10311;SDS011;5201;48.776;9.128;2022-12-18T02:34:42;37.70;;;16.43;;
10311;SDS011;5201;48.776;9.128;2022-12-18T02:37:10;31.90;;;15.33;;
10311;SDS011;5201;48.776;9.128;2022-12-18T02:39:39;33.33;;;16.53;;
10311;SDS011;5201;48.776;9.128;2022-12-18T02:42:07;31.77;;;14.20;;
10311;SDS011;5201;48.776;9.128;2022-12-18T02:44:43;27.40;;;13.47;;
10311;SDS011;5201;48.776;9.128;2022-12-18T02:47:11;35.47;;;13.37;;
10311;SDS011;5201;48.776;9.128;2022-12-18T02:49:47;35.30;;;14.50;;
10311;SDS011;5201;48.776;9.128;2022-12-18T02:55:19;25.23;;;12.97;;
10311;SDS011;5201;48.776;9.128;2022-12-18T03:03:31;28.23;;;12.47;;
10311;SDS011;5201;48.776;9.128;2022-12-18T03:08:48;23.60;;;11.67;;
10311;SDS011;5201;48.776;9.128;2022-12-18T03:11:18;27.73;;;12.70;;
10311;SDS011;5201;48.776;9.128;2022-12-18T03:14:04;24.57;;;13.63;;
10311;SDS011;5201;48.776;9.128;2022-12-18T03:16:32;26.97;;;12.40;;
10311;SDS011;5201;48.776;9.128;2022-12-18T03:19:01;31.80;;;12.87;;
10311;SDS011;5201;48.776;9.128;2022-12-18T03:21:33;26.43;;;13.73;;
10311;SDS011;5201;48.776;9.128;2022-12-18T03:24:08;27.57;;;12.03;;
10311;SDS011;5201;48.776;9.128;2022-12-18T03:26:35;28.23;;;13.23;;
10311;SDS011;5201;48.776;9.128;2022-12-18T03:29:12;29.90;;;13.53;;
10311;SDS011;5201;48.776;9.128;2022-12-18T03:31:45;26.73;;;11.93;;
10311;SDS011;5201;48.776;9.128;2022-12-18T03:34:17;25.10;;;12.37;;
10311;SDS011;5201;48.776;9.128;2022-12-18T03:36:55;27.93;;;13.30;;
10311;SDS011;5201;48.776;9.128;2022-12-18T03:39:21;26.33;;;12.67;;
10311;SDS011;5201;48.776;9.128;2022-12-18T03:41:51;26.80;;;13.53;;
10311;SDS011;5201;48.776;9.128;2022-12-18T03:44:26;28.33;;;13.73;;
10311;SDS011;5201;48.776;9.128;2022-12-18T03:52:26;23.23;;;12.10;;
10311;SDS011;5201;48.776;9.128;2022-12-18T03:54:56;25.13;;;12.43;;
10311;SDS011;5201;48.776;9.128;2022-12-18T03:57:25;20.07;;;10.33;;
10311;SDS011;5201;48.776;9.128;2022-12-18T04:00:27;25.00;;;13.97;;
10311;SDS011;5201;48.776;9.128;2022-12-18T04:02:48;19.87;;;11.20;;
10311;SDS011;5201;48.776;9.128;2022-12-18T04:05:17;21.00;;;10.30;;
10311;SDS011;5201;48.776;9.128;2022-12-18T04:07:44;27.40;;;12.30;;
10311;SDS011;5201;48.776;9.128;2022-12-18T04:10:13;20.50;;;11.57;;
10311;SDS011;5201;48.776;9.128;2022-12-18T04:12:40;21.60;;;11.77;;
10311;SDS011;5201;48.776;9.128;2022-12-18T04:15:07;21.40;;;10.60;;
10311;SDS011;5201;48.776;9.128;2022-12-18T04:17:33;21.93;;;10.10;;
10311;SDS011;5201;48.776;9.128;2022-12-18T04:19:59;21.63;;;11.40;;
10311;SDS011;5201;48.776;9.128;2022-12-18T04:22:24;18.20;;;10.03;;
10311;SDS011;5201;48.776;9.128;2022-12-18T04:24:50;24.00;;;11.20;;
10311;SDS011;5201;48.776;9.128;2022-12-18T04:27:15;22.97;;;12.47;;
10311;SDS011;5201;48.776;9.128;2022-12-18T04:29:41;21.60;;;11.27;;
10311;SDS011;5201;48.776;9.128;2022-12-18T04:32:07;17.97;;;10.50;;
10311;SDS011;5201;48.776;9.128;2022-12-18T04:34:33;22.53;;;12.43;;
10311;SDS011;5201;48.776;9.128;2022-12-18T04:36:59;24.57;;;11.67;;
10311;SDS011;5201;48.776;9.128;2022-12-18T04:39:24;18.47;;;10.33;;
10311;SDS011;5201;48.776;9.128;2022-12-18T04:41:50;19.30;;;10.77;;
10311;SDS011;5201;48.776;9.128;2022-12-18T04:44:15;24.43;;;11.50;;
10311;SDS011;5201;48.776;9.128;2022-12-18T04:46:42;21.70;;;10.03;;
10311;SDS011;5201;48.776;9.128;2022-12-18T04:49:07;24.23;;;12.03;;
10311;SDS011;5201;48.776;9.128;2022-12-18T04:51:35;20.20;;;10.20;;
10311;SDS011;5201;48.776;9.128;2022-12-18T04:54:01;21.83;;;11.07;;
10311;SDS011;5201;48.776;9.128;2022-12-18T04:56:26;16.37;;;10.63;;
10311;SDS011;5201;48.776;9.128;2022-12-18T04:58:52;19.43;;;12.17;;
10311;SDS011;5201;48.776;9.128;2022-12-18T05:01:18;26.97;;;12.70;;
10311;SDS011;5201;48.776;9.128;2022-12-18T05:03:44;26.33;;;12.20;;
10311;SDS011;5201;48.776;9.128;2022-12-18T05:06:10;24.93;;;10.50;;
10311;SDS011;5201;48.776;9.128;2022-12-18T05:08:35;21.80;;;11.60;;
10311;SDS011;5201;48.776;9.128;2022-12-18T05:11:08;19.53;;;10.43;;
10311;SDS011;5201;48.776;9.128;2022-12-18T05:13:36;18.90;;;11.20;;
10311;SDS011;5201;48.776;9.128;2022-12-18T05:16:03;23.27;;;11.50;;
10311;SDS011;5201;48.776;9.128;2022-12-18T05:18:29;24.03;;;11.90;;
10311;SDS011;5201;48.776;9.128;2022-12-18T05:20:55;25.93;;;11.93;;
10311;SDS011;5201;48.776;9.128;2022-12-18T05:23:22;20.73;;;12.40;;
10311;SDS011;5201;48.776;9.128;2022-12-18T05:25:55;25.30;;;12.00;;
10311;SDS011;5201;48.776;9.128;2022-12-18T05:28:24;18.90;;;10.90;;
10311;SDS011;5201;48.776;9.128;2022-12-18T05:30:51;19.27;;;10.27;;
10311;SDS011;5201;48.776;9.128;2022-12-18T05:33:18;17.67;;;10.80;;
10311;SDS011;5201;48.776;9.128;2022-12-18T05:35:49;23.37;;;12.37;;
10311;SDS011;5201;48.776;9.128;2022-12-18T05:38:15;22.83;;;10.93;;
10311;SDS011;5201;48.776;9.128;2022-12-18T05:40:41;29.50;;;14.60;;
10311;SDS011;5201;48.776;9.128;2022-12-18T05:43:08;23.63;;;11.27;;
10311;SDS011;5201;48.776;9.128;2022-12-18T05:45:36;22.20;;;11.70;;
10311;SDS011;5201;48.776;9.128;2022-12-18T05:48:03;18.80;;;11.63;;
10311;SDS011;5201;48.776;9.128;2022-12-18T05:50:29;19.13;;;11.17;;
10311;SDS011;5201;48.776;9.128;2022-12-18T05:52:54;19.10;;;11.40;;
10311;SDS011;5201;48.776;9.128;2022-12-18T05:55:20;26.70;;;12.30;;
10311;SDS011;5201;48.776;9.128;2022-12-18T05:57:45;21.60;;;11.57;;
10311;SDS011;5201;48.776;9.128;2022-12-18T06:00:11;19.03;;;11.23;;
10311;SDS011;5201;48.776;9.128;2022-12-18T06:02:37;20.20;;;10.93;;
10311;SDS011;5201;48.776;9.128;2022-12-18T06:05:03;22.03;;;10.90;;
10311;SDS011;5201;48.776;9.128;2022-12-18T06:07:29;24.23;;;11.03;;
10311;SDS011;5201;48.776;9.128;2022-12-18T06:09:54;19.37;;;11.20;;
10311;SDS011;5201;48.776;9.128;2022-12-18T06:12:20;23.33;;;10.07;;
10311;SDS011;5201;48.776;9.128;2022-12-18T06:14:46;20.67;;;11.90;;
10311;SDS011;5201;48.776;9.128;2022-12-18T06:17:11;19.40;;;10.73;;
10311;SDS011;5201;48.776;9.128;2022-12-18T06:19:37;20.20;;;11.97;;
10311;SDS011;5201;48.776;9.128;2022-12-18T06:22:02;18.67;;;10.73;;
10311;SDS011;5201;48.776;9.128;2022-12-18T06:24:28;18.97;;;10.00;;
10311;SDS011;5201;48.776;9.128;2022-12-18T06:26:55;20.27;;;10.27;;
10311;SDS011;5201;48.776;9.128;2022-12-18T06:29:20;27.20;;;11.33;;
10311;SDS011;5201;48.776;9.128;2022-12-18T06:31:46;20.80;;;11.17;;
10311;SDS011;5201;48.776;9.128;2022-12-18T06:34:11;19.30;;;11.07;;
10311;SDS011;5201;48.776;9.128;2022-12-18T06:36:37;20.23;;;11.33;;
10311;SDS011;5201;48.776;9.128;2022-12-18T06:39:02;28.33;;;10.77;;
10311;SDS011;5201;48.776;9.128;2022-12-18T06:41:28;23.33;;;11.47;;
10311;SDS011;5201;48.776;9.128;2022-12-18T06:43:54;20.37;;;10.10;;
10311;SDS011;5201;48.776;9.128;2022-12-18T06:46:19;18.77;;;11.10;;
10311;SDS011;5201;48.776;9.128;2022-12-18T06:48:49;19.83;;;10.43;;
10311;SDS011;5201;48.776;9.128;2022-12-18T06:51:16;22.73;;;12.17;;
10311;SDS011;5201;48.776;9.128;2022-12-18T06:53:46;24.67;;;12.70;;
10311;SDS011;5201;48.776;9.128;2022-12-18T06:56:11;22.27;;;12.10;;
10311;SDS011;5201;48.776;9.128;2022-12-18T06:58:38;18.63;;;10.00;;
10311;SDS011;5201;48.776;9.128;2022-12-18T07:01:05;18.17;;;10.70;;
10311;SDS011;5201;48.776;9.128;2022-12-18T07:03:32;19.30;;;10.20;;
10311;SDS011;5201;48.776;9.128;2022-12-18T07:05:58;17.47;;;10.67;;
10311;SDS011;5201;48.776;9.128;2022-12-18T07:08:24;19.50;;;10.83;;
10311;SDS011;5201;48.776;9.128;2022-12-18T07:10:50;25.47;;;12.50;;
10311;SDS011;5201;48.776;9.128;2022-12-18T07:13:16;22.77;;;11.10;;
10311;SDS011;5201;48.776;9.128;2022-12-18T07:15:42;15.70;;;10.33;;
10311;SDS011;5201;48.776;9.128;2022-12-18T07:18:08;16.83;;;10.43;;
10311;SDS011;5201;48.776;9.128;2022-12-18T07:20:34;14.83;;;10.10;;
10311;SDS011;5201;48.776;9.128;2022-12-18T07:23:01;22.87;;;10.77;;
10311;SDS011;5201;48.776;9.128;2022-12-18T07:25:30;20.53;;;10.50;;
10311;SDS011;5201;48.776;9.128;2022-12-18T07:28:02;23.10;;;10.93;;
10311;SDS011;5201;48.776;9.128;2022-12-18T07:30:28;18.97;;;10.67;;
10311;SDS011;5201;48.776;9.128;2022-12-18T07:32:54;21.33;;;11.67;;
10311;SDS011;5201;48.776;9.128;2022-12-18T07:35:20;18.43;;;10.20;;
10311;SDS011;5201;48.776;9.128;2022-12-18T07:37:45;19.90;;;10.00;;
10311;SDS011;5201;48.776;9.128;2022-12-18T07:40:11;21.77;;;11.47;;
10311;SDS011;5201;48.776;9.128;2022-12-18T07:42:37;23.27;;;12.27;;
10311;SDS011;5201;48.776;9.128;2022-12-18T07:45:03;30.40;;;14.33;;
10311;SDS011;5201;48.776;9.128;2022-12-18T07:47:35;31.83;;;14.13;;
10311;SDS011;5201;48.776;9.128;2022-12-18T07:50:02;21.10;;;11.10;;
10311;SDS011;5201;48.776;9.128;2022-12-18T07:52:28;20.90;;;11.40;;
10311;SDS011;5201;48.776;9.128;2022-12-18T07:54:54;20.57;;;11.13;;
10311;SDS011;5201;48.776;9.128;2022-12-18T07:57:19;21.77;;;10.63;;
10311;SDS011;5201;48.776;9.128;2022-12-18T07:59:45;26.40;;;12.70;;
10311;SDS011;5201;48.776;9.128;2022-12-18T08:02:11;21.47;;;10.80;;
10311;SDS011;5201;48.776;9.128;2022-12-18T08:04:36;22.67;;;11.53;;
10311;SDS011;5201;48.776;9.128;2022-12-18T08:07:02;22.17;;;11.00;;
10311;SDS011;5201;48.776;9.128;2022-12-18T08:09:28;17.83;;;9.40;;
10311;SDS011;5201;48.776;9.128;2022-12-18T08:11:53;22.17;;;11.47;;
10311;SDS011;5201;48.776;9.128;2022-12-18T08:14:19;24.67;;;11.90;;
10311;SDS011;5201;48.776;9.128;2022-12-18T08:16:44;34.03;;;16.27;;
10311;SDS011;5201;48.776;9.128;2022-12-18T08:19:10;18.13;;;10.10;;
10311;SDS011;5201;48.776;9.128;2022-12-18T08:21:36;22.30;;;12.10;;
10311;SDS011;5201;48.776;9.128;2022-12-18T08:24:02;18.37;;;10.03;;
10311;SDS011;5201;48.776;9.128;2022-12-18T08:26:29;22.40;;;11.57;;
10311;SDS011;5201;48.776;9.128;2022-12-18T08:28:56;27.57;;;12.37;;
10311;SDS011;5201;48.776;9.128;2022-12-18T08:31:23;22.67;;;10.70;;
10311;SDS011;5201;48.776;9.128;2022-12-18T08:33:50;32.33;;;11.93;;
10311;SDS011;5201;48.776;9.128;2022-12-18T08:36:17;22.97;;;12.20;;
10311;SDS011;5201;48.776;9.128;2022-12-18T08:38:43;31.53;;;13.67;;
10311;SDS011;5201;48.776;9.128;2022-12-18T08:41:10;22.67;;;12.30;;
10311;SDS011;5201;48.776;9.128;2022-12-18T08:43:37;24.17;;;11.20;;
10311;SDS011;5201;48.776;9.128;2022-12-18T08:46:22;32.33;;;12.03;;
10311;SDS011;5201;48.776;9.128;2022-12-18T08:48:52;20.77;;;11.90;;
10311;SDS011;5201;48.776;9.128;2022-12-18T08:51:19;32.27;;;13.10;;
10311;SDS011;5201;48.776;9.128;2022-12-18T08:53:44;22.77;;;12.80;;
10311;SDS011;5201;48.776;9.128;2022-12-18T08:56:10;27.27;;;12.63;;
10311;SDS011;5201;48.776;9.128;2022-12-18T08:58:37;31.07;;;13.10;;
10311;SDS011;5201;48.776;9.128;2022-12-18T09:01:03;29.90;;;13.53;;
10311;SDS011;5201;48.776;9.128;2022-12-18T09:03:30;24.30;;;12.37;;
10311;SDS011;5201;48.776;9.128;2022-12-18T09:05:56;33.20;;;15.03;;
10311;SDS011;5201;48.776;9.128;2022-12-18T09:08:22;25.23;;;13.50;;
10311;SDS011;5201;48.776;9.128;2022-12-18T09:10:48;25.83;;;12.70;;
10311;SDS011;5201;48.776;9.128;2022-12-18T09:13:15;19.97;;;10.90;;
10311;SDS011;5201;48.776;9.128;2022-12-18T09:15:41;26.13;;;11.63;;
10311;SDS011;5201;48.776;9.128;2022-12-18T09:18:08;25.00;;;12.07;;
10311;SDS011;5201;48.776;9.128;2022-12-18T09:20:35;24.97;;;11.97;;
10311;SDS011;5201;48.776;9.128;2022-12-18T09:23:01;26.00;;;11.77;;
10311;SDS011;5201;48.776;9.128;2022-12-18T09:25:28;26.60;;;13.43;;
10311;SDS011;5201;48.776;9.128;2022-12-18T09:27:57;31.13;;;13.13;;
10311;SDS011;5201;48.776;9.128;2022-12-18T09:30:40;28.63;;;12.27;;
10311;SDS011;5201;48.776;9.128;2022-12-18T09:33:07;25.50;;;12.33;;
10311;SDS011;5201;48.776;9.128;2022-12-18T09:35:35;33.17;;;13.57;;
10311;SDS011;5201;48.776;9.128;2022-12-18T09:38:05;27.50;;;13.50;;
10311;SDS011;5201;48.776;9.128;2022-12-18T09:40:39;24.77;;;13.33;;
10311;SDS011;5201;48.776;9.128;2022-12-18T09:43:12;27.90;;;12.43;;
10311;SDS011;5201;48.776;9.128;2022-12-18T09:45:44;26.40;;;12.07;;
10311;SDS011;5201;48.776;9.128;2022-12-18T09:48:28;27.67;;;13.50;;
10311;SDS011;5201;48.776;9.128;2022-12-18T09:51:10;23.23;;;12.10;;
10311;SDS011;5201;48.776;9.128;2022-12-18T09:53:49;25.60;;;12.40;;
10311;SDS011;5201;48.776;9.128;2022-12-18T09:56:18;34.00;;;13.93;;
10311;SDS011;5201;48.776;9.128;2022-12-18T09:59:01;25.40;;;13.00;;
10311;SDS011;5201;48.776;9.128;2022-12-18T10:01:29;25.50;;;12.63;;
10311;SDS011;5201;48.776;9.128;2022-12-18T10:03:56;26.13;;;12.87;;
10311;SDS011;5201;48.776;9.128;2022-12-18T10:14:36;31.40;;;12.63;;
10311;SDS011;5201;48.776;9.128;2022-12-18T10:19:45;33.77;;;13.83;;
10311;SDS011;5201;48.776;9.128;2022-12-18T10:25:03;21.40;;;11.60;;
10311;SDS011;5201;48.776;9.128;2022-12-18T10:27:52;27.20;;;12.90;;
10311;SDS011;5201;48.776;9.128;2022-12-18T10:30:23;24.47;;;12.37;;
10311;SDS011;5201;48.776;9.128;2022-12-18T10:32:50;28.20;;;13.40;;
10311;SDS011;5201;48.776;9.128;2022-12-18T10:35:24;24.67;;;12.30;;
10311;SDS011;5201;48.776;9.128;2022-12-18T10:38:06;26.50;;;12.87;;
10311;SDS011;5201;48.776;9.128;2022-12-18T10:40:32;25.23;;;11.90;;
10311;SDS011;5201;48.776;9.128;2022-12-18T10:43:13;29.40;;;13.23;;
10311;SDS011;5201;48.776;9.128;2022-12-18T10:45:40;31.50;;;13.27;;
10311;SDS011;5201;48.776;9.128;2022-12-18T10:48:17;24.20;;;11.57;;
10311;SDS011;5201;48.776;9.128;2022-12-18T10:50:46;26.67;;;12.90;;
10311;SDS011;5201;48.776;9.128;2022-12-18T10:53:18;29.93;;;13.30;;
10311;SDS011;5201;48.776;9.128;2022-12-18T10:55:49;23.10;;;10.93;;
10311;SDS011;5201;48.776;9.128;2022-12-18T10:58:29;28.67;;;12.23;;
10311;SDS011;5201;48.776;9.128;2022-12-18T11:06:20;27.53;;;12.07;;
10311;SDS011;5201;48.776;9.128;2022-12-18T11:11:50;23.70;;;10.70;;
10311;SDS011;5201;48.776;9.128;2022-12-18T11:14:29;28.57;;;12.10;;
10311;SDS011;5201;48.776;9.128;2022-12-18T11:16:58;28.00;;;12.93;;
10311;SDS011;5201;48.776;9.128;2022-12-18T11:19:37;27.77;;;12.30;;
10311;SDS011;5201;48.776;9.128;2022-12-18T11:27:40;27.33;;;12.80;;
10311;SDS011;5201;48.776;9.128;2022-12-18T11:32:50;27.23;;;12.43;;
10311;SDS011;5201;48.776;9.128;2022-12-18T11:38:19;24.03;;;13.83;;
10311;SDS011;5201;48.776;9.128;2022-12-18T11:40:50;28.60;;;12.70;;
10311;SDS011;5201;48.776;9.128;2022-12-18T11:43:27;28.70;;;11.93;;
10311;SDS011;5201;48.776;9.128;2022-12-18T11:46:10;37.53;;;11.60;;
10311;SDS011;5201;48.776;9.128;2022-12-18T11:49:11;30.57;;;12.70;;
10311;SDS011;5201;48.776;9.128;2022-12-18T11:54:45;37.33;;;13.23;;
10311;SDS011;5201;48.776;9.128;2022-12-18T11:59:57;28.80;;;12.73;;
10311;SDS011;5201;48.776;9.128;2022-12-18T12:03:03;28.43;;;12.60;;
10311;SDS011;5201;48.776;9.128;2022-12-18T12:05:48;30.90;;;13.60;;
10311;SDS011;5201;48.776;9.128;2022-12-18T12:17:14;32.73;;;14.20;;
10311;SDS011;5201;48.776;9.128;2022-12-18T12:20:09;31.13;;;14.23;;
10311;SDS011;5201;48.776;9.128;2022-12-18T12:39:20;31.27;;;14.40;;
10311;SDS011;5201;48.776;9.128;2022-12-18T12:41:53;37.63;;;15.60;;
10311;SDS011;5201;48.776;9.128;2022-12-18T12:44:49;34.77;;;15.97;;
10311;SDS011;5201;48.776;9.128;2022-12-18T12:47:21;36.13;;;16.10;;
10311;SDS011;5201;48.776;9.128;2022-12-18T12:49:51;32.63;;;14.27;;
10311;SDS011;5201;48.776;9.128;2022-12-18T12:52:39;38.57;;;16.10;;
10311;SDS011;5201;48.776;9.128;2022-12-18T12:55:19;32.77;;;14.10;;
10311;SDS011;5201;48.776;9.128;2022-12-18T12:57:54;34.83;;;15.10;;
10311;SDS011;5201;48.776;9.128;2022-12-18T13:00:44;36.40;;;14.90;;
10311;SDS011;5201;48.776;9.128;2022-12-18T13:06:28;32.03;;;14.77;;
10311;SDS011;5201;48.776;9.128;2022-12-18T13:09:01;31.43;;;14.30;;
10311;SDS011;5201;48.776;9.128;2022-12-18T13:11:29;35.47;;;14.33;;
10311;SDS011;5201;48.776;9.128;2022-12-18T13:19:44;29.50;;;13.80;;
10311;SDS011;5201;48.776;9.128;2022-12-18T13:23:17;30.27;;;14.70;;
10311;SDS011;5201;48.776;9.128;2022-12-18T13:25:30;28.60;;;14.20;;
10311;SDS011;5201;48.776;9.128;2022-12-18T13:27:59;33.97;;;15.57;;
10311;SDS011;5201;48.776;9.128;2022-12-18T13:38:21;34.47;;;15.57;;
10311;SDS011;5201;48.776;9.128;2022-12-18T13:40:57;36.37;;;14.50;;
10311;SDS011;5201;48.776;9.128;2022-12-18T13:43:35;30.33;;;14.97;;
10311;SDS011;5201;48.776;9.128;2022-12-18T13:52:00;31.43;;;12.83;;
10311;SDS011;5201;48.776;9.128;2022-12-18T13:56:51;31.00;;;13.67;;
10311;SDS011;5201;48.776;9.128;2022-12-18T13:59:21;33.37;;;13.17;;
10311;SDS011;5201;48.776;9.128;2022-12-18T14:01:53;29.73;;;13.27;;
10311;SDS011;5201;48.776;9.128;2022-12-18T14:04:27;26.60;;;12.73;;
10311;SDS011;5201;48.776;9.128;2022-12-18T14:06:56;29.67;;;13.13;;
10311;SDS011;5201;48.776;9.128;2022-12-18T14:09:28;31.57;;;13.37;;
10311;SDS011;5201;48.776;9.128;2022-12-18T14:11:56;34.03;;;14.30;;
10311;SDS011;5201;48.776;9.128;2022-12-18T14:14:45;29.33;;;12.77;;
10311;SDS011;5201;48.776;9.128;2022-12-18T14:17:14;29.23;;;13.43;;
10311;SDS011;5201;48.776;9.128;2022-12-18T14:19:41;30.63;;;13.67;;
10311;SDS011;5201;48.776;9.128;2022-12-18T14:22:19;33.47;;;14.77;;
10311;SDS011;5201;48.776;9.128;2022-12-18T14:24:47;29.80;;;13.20;;
10311;SDS011;5201;48.776;9.128;2022-12-18T14:27:29;31.53;;;13.53;;
10311;SDS011;5201;48.776;9.128;2022-12-18T14:29:55;31.60;;;13.77;;
10311;SDS011;5201;48.776;9.128;2022-12-18T14:32:23;27.23;;;14.03;;
10311;SDS011;5201;48.776;9.128;2022-12-18T14:34:52;29.67;;;14.33;;
10311;SDS011;5201;48.776;9.128;2022-12-18T14:37:25;33.20;;;13.47;;
10311;SDS011;5201;48.776;9.128;2022-12-18T14:39:53;30.20;;;13.97;;
10311;SDS011;5201;48.776;9.128;2022-12-18T14:42:21;32.70;;;13.93;;
10311;SDS011;5201;48.776;9.128;2022-12-18T14:44:51;35.20;;;14.97;;
10311;SDS011;5201;48.776;9.128;2022-12-18T14:47:17;35.87;;;15.77;;
10311;SDS011;5201;48.776;9.128;2022-12-18T14:49:43;32.50;;;13.27;;
10311;SDS011;5201;48.776;9.128;2022-12-18T14:52:42;41.60;;;13.87;;
10311;SDS011;5201;48.776;9.128;2022-12-18T14:55:01;30.80;;;14.27;;
10311;SDS011;5201;48.776;9.128;2022-12-18T14:57:32;38.50;;;15.00;;
10311;SDS011;5201;48.776;9.128;2022-12-18T15:00:04;31.87;;;15.50;;
10311;SDS011;5201;48.776;9.128;2022-12-18T15:02:39;32.23;;;14.67;;
10311;SDS011;5201;48.776;9.128;2022-12-18T15:05:16;31.70;;;14.83;;
10311;SDS011;5201;48.776;9.128;2022-12-18T15:07:45;39.23;;;15.23;;
10311;SDS011;5201;48.776;9.128;2022-12-18T15:10:17;29.37;;;13.93;;
10311;SDS011;5201;48.776;9.128;2022-12-18T15:23:22;36.53;;;16.77;;
10311;SDS011;5201;48.776;9.128;2022-12-18T15:25:57;37.40;;;17.17;;
10311;SDS011;5201;48.776;9.128;2022-12-18T15:28:26;37.87;;;14.60;;
10311;SDS011;5201;48.776;9.128;2022-12-18T15:31:00;30.67;;;14.17;;
10311;SDS011;5201;48.776;9.128;2022-12-18T15:33:29;28.73;;;14.67;;
10311;SDS011;5201;48.776;9.128;2022-12-18T15:35:57;32.07;;;14.17;;
10311;SDS011;5201;48.776;9.128;2022-12-18T15:38:24;32.50;;;14.97;;
10311;SDS011;5201;48.776;9.128;2022-12-18T15:40:50;47.60;;;16.03;;
10311;SDS011;5201;48.776;9.128;2022-12-18T15:43:16;36.87;;;15.20;;
10311;SDS011;5201;48.776;9.128;2022-12-18T15:45:58;35.63;;;16.47;;
10311;SDS011;5201;48.776;9.128;2022-12-18T15:48:45;36.27;;;16.00;;
10311;SDS011;5201;48.776;9.128;2022-12-18T15:51:19;38.97;;;15.50;;
10311;SDS011;5201;48.776;9.128;2022-12-18T15:53:48;35.77;;;16.43;;
10311;SDS011;5201;48.776;9.128;2022-12-18T15:56:16;42.50;;;17.27;;
10311;SDS011;5201;48.776;9.128;2022-12-18T15:59:00;34.00;;;14.70;;
10311;SDS011;5201;48.776;9.128;2022-12-18T16:01:27;37.73;;;16.90;;
10311;SDS011;5201;48.776;9.128;2022-12-18T16:03:55;41.50;;;18.30;;
10311;SDS011;5201;48.776;9.128;2022-12-18T16:06:21;40.10;;;17.53;;
10311;SDS011;5201;48.776;9.128;2022-12-18T16:08:48;41.93;;;17.97;;
10311;SDS011;5201;48.776;9.128;2022-12-18T16:11:21;38.53;;;15.57;;
10311;SDS011;5201;48.776;9.128;2022-12-18T16:14:03;44.67;;;17.00;;
10311;SDS011;5201;48.776;9.128;2022-12-18T16:16:40;41.77;;;16.97;;
10311;SDS011;5201;48.776;9.128;2022-12-18T16:19:06;38.93;;;18.60;;
10311;SDS011;5201;48.776;9.128;2022-12-18T16:21:32;35.57;;;16.10;;
10311;SDS011;5201;48.776;9.128;2022-12-18T16:23:58;35.83;;;16.33;;
10311;SDS011;5201;48.776;9.128;2022-12-18T16:26:24;31.30;;;15.73;;
10311;SDS011;5201;48.776;9.128;2022-12-18T16:28:50;37.43;;;17.40;;
10311;SDS011;5201;48.776;9.128;2022-12-18T16:31:16;37.27;;;16.73;;
10311;SDS011;5201;48.776;9.128;2022-12-18T16:33:41;35.90;;;16.23;;
10311;SDS011;5201;48.776;9.128;2022-12-18T16:36:07;36.87;;;15.60;;
10311;SDS011;5201;48.776;9.128;2022-12-18T16:38:33;35.90;;;15.90;;
10311;SDS011;5201;48.776;9.128;2022-12-18T16:40:59;31.87;;;15.27;;
10311;SDS011;5201;48.776;9.128;2022-12-18T16:43:43;35.77;;;14.37;;
10311;SDS011;5201;48.776;9.128;2022-12-18T16:46:09;37.63;;;16.40;;
10311;SDS011;5201;48.776;9.128;2022-12-18T16:48:35;38.40;;;16.77;;
10311;SDS011;5201;48.776;9.128;2022-12-18T16:51:02;39.73;;;14.90;;
10311;SDS011;5201;48.776;9.128;2022-12-18T16:53:29;34.27;;;15.83;;
10311;SDS011;5201;48.776;9.128;2022-12-18T16:55:56;34.33;;;15.90;;
10311;SDS011;5201;48.776;9.128;2022-12-18T16:58:22;42.87;;;17.53;;
10311;SDS011;5201;48.776;9.128;2022-12-18T17:00:48;37.23;;;17.23;;
10311;SDS011;5201;48.776;9.128;2022-12-18T17:03:14;41.93;;;14.50;;